createdAt,value
2023-04-07T00:01:46.444Z,7.33
2023-04-07T00:04:13.830Z,7.63
2023-04-07T00:06:41.084Z,8.53
2023-04-07T00:09:08.183Z,8.23
2023-04-07T00:11:35.285Z,8.10
2023-04-07T00:14:02.391Z,8.73
2023-04-07T00:16:29.497Z,8.20
2023-04-07T00:18:56.599Z,8.40
2023-04-07T00:21:23.721Z,8.40
2023-04-07T00:23:50.864Z,8.33
2023-04-07T00:26:18.025Z,8.83
2023-04-07T00:28:45.177Z,9.07
2023-04-07T00:31:12.356Z,9.70
2023-04-07T00:33:39.500Z,9.93
2023-04-07T00:36:06.689Z,9.23
2023-04-07T00:38:33.844Z,9.67
2023-04-07T00:41:01.353Z,9.67
2023-04-07T00:43:28.485Z,8.90
2023-04-07T00:45:55.718Z,9.77
2023-04-07T00:48:23.002Z,9.53
2023-04-07T00:50:50.185Z,9.47
2023-04-07T00:53:17.422Z,9.73
2023-04-07T00:55:44.855Z,9.97
2023-04-07T00:58:11.986Z,10.30
2023-04-07T01:00:42.516Z,10.80
2023-04-07T01:03:24.471Z,10.23
2023-04-07T01:06:01.770Z,10.03
2023-04-07T01:08:36.339Z,10.83
2023-04-07T01:11:14.757Z,11.07
2023-04-07T01:13:47.807Z,11.40
2023-04-07T01:16:17.865Z,10.90
2023-04-07T01:18:46.089Z,11.87
2023-04-07T01:21:17.947Z,11.60
2023-04-07T01:24:03.855Z,12.27
2023-04-07T01:26:32.154Z,11.97
2023-04-07T01:29:02.034Z,12.17
2023-04-07T01:31:29.573Z,12.77
2023-04-07T01:33:58.272Z,12.83
2023-04-07T01:36:28.479Z,13.13
2023-04-07T01:38:55.998Z,12.43
2023-04-07T01:41:24.046Z,13.13
2023-04-07T01:43:52.126Z,13.27
2023-04-07T01:46:19.499Z,13.67
2023-04-07T01:48:46.803Z,13.70
2023-04-07T01:51:17.660Z,14.13
2023-04-07T01:53:46.456Z,13.40
2023-04-07T01:56:13.643Z,14.60
2023-04-07T01:58:40.781Z,14.10
2023-04-07T02:01:07.953Z,14.40
2023-04-07T02:03:47.703Z,15.10
2023-04-07T02:06:18.778Z,14.50
2023-04-07T02:08:48.410Z,15.17
2023-04-07T02:11:16.456Z,14.93
2023-04-07T02:13:44.497Z,15.80
2023-04-07T02:16:12.573Z,15.53
2023-04-07T02:18:40.128Z,14.13
2023-04-07T02:21:08.864Z,14.60
2023-04-07T02:23:36.417Z,13.97
2023-04-07T02:26:03.544Z,13.60
2023-04-07T02:28:30.691Z,13.60
2023-04-07T02:30:57.826Z,14.07
2023-04-07T02:33:24.957Z,13.30
2023-04-07T02:35:52.055Z,14.20
2023-04-07T02:38:19.156Z,14.70
2023-04-07T02:40:46.277Z,15.53
2023-04-07T02:43:13.438Z,14.37
2023-04-07T02:45:40.619Z,14.60
2023-04-07T02:48:07.756Z,15.37
2023-04-07T02:50:34.857Z,14.87
2023-04-07T02:53:01.951Z,14.30
2023-04-07T02:55:29.085Z,14.27
2023-04-07T02:57:56.167Z,14.83
2023-04-07T03:00:23.289Z,15.67
2023-04-07T03:02:50.992Z,14.97
2023-04-07T03:05:18.326Z,16.07
2023-04-07T03:07:45.572Z,15.57
2023-04-07T03:10:12.905Z,16.40
2023-04-07T03:12:40.076Z,16.60
2023-04-07T03:15:07.451Z,15.47
2023-04-07T03:17:34.684Z,14.73
2023-04-07T03:20:02.167Z,14.97
2023-04-07T03:22:29.302Z,15.53
2023-04-07T03:24:56.382Z,16.57
2023-04-07T03:27:23.585Z,15.60
2023-04-07T03:29:51.340Z,16.60
2023-04-07T03:32:18.608Z,16.37
2023-04-07T03:34:45.843Z,16.93
2023-04-07T03:37:12.991Z,17.27
2023-04-07T03:39:41.066Z,18.10
2023-04-07T03:42:08.250Z,15.93
2023-04-07T03:44:35.346Z,15.63
2023-04-07T03:47:02.517Z,16.20
2023-04-07T03:49:31.417Z,16.97
2023-04-07T03:51:58.806Z,16.33
2023-04-07T03:54:26.205Z,16.03
2023-04-07T03:56:53.335Z,17.90
2023-04-07T03:59:20.701Z,17.40
2023-04-07T04:01:47.810Z,18.90
2023-04-07T04:04:15.152Z,17.80
2023-04-07T04:06:42.334Z,18.07
2023-04-07T04:09:09.495Z,18.43
2023-04-07T04:11:37.315Z,17.40
2023-04-07T04:14:04.494Z,17.20
2023-04-07T04:16:31.782Z,16.07
2023-04-07T04:18:58.974Z,16.60
2023-04-07T04:21:27.336Z,15.97
2023-04-07T04:23:54.596Z,16.70
2023-04-07T04:26:25.946Z,16.03
2023-04-07T04:28:53.337Z,17.80
2023-04-07T04:31:20.527Z,17.97
2023-04-07T04:33:47.759Z,18.33
2023-04-07T04:36:14.936Z,16.97
2023-04-07T04:38:42.094Z,18.07
2023-04-07T04:41:09.268Z,19.10
2023-04-07T04:43:36.478Z,18.47
2023-04-07T04:46:03.600Z,18.30
2023-04-07T04:48:30.733Z,18.87
2023-04-07T04:50:57.837Z,20.07
2023-04-07T04:53:24.915Z,19.13
2023-04-07T04:55:53.218Z,18.47
2023-04-07T04:58:21.807Z,19.80
2023-04-07T05:00:48.968Z,19.23
2023-04-07T05:03:16.291Z,18.13
2023-04-07T05:05:43.989Z,19.37
2023-04-07T05:08:11.986Z,21.47
2023-04-07T05:10:40.441Z,20.13
2023-04-07T05:13:07.567Z,20.10
2023-04-07T05:15:34.800Z,20.13
2023-04-07T05:18:02.016Z,20.80
2023-04-07T05:20:29.184Z,20.33
2023-04-07T05:22:56.469Z,20.17
2023-04-07T05:25:23.580Z,19.10
2023-04-07T05:27:51.378Z,20.83
2023-04-07T05:30:18.536Z,20.20
2023-04-07T05:32:45.661Z,20.83
2023-04-07T05:35:12.858Z,19.63
2023-04-07T05:37:40.593Z,19.30
2023-04-07T05:40:07.980Z,20.10
2023-04-07T05:42:35.253Z,19.10
2023-04-07T05:45:02.370Z,20.80
2023-04-07T05:47:29.513Z,20.63
2023-04-07T05:49:56.713Z,21.57
2023-04-07T05:52:23.801Z,20.70
2023-04-07T05:54:50.909Z,20.53
2023-04-07T05:57:18.217Z,20.40
2023-04-07T05:59:45.858Z,19.77
2023-04-07T06:02:13.955Z,20.33
2023-04-07T06:04:41.485Z,18.70
2023-04-07T06:07:08.623Z,18.70
2023-04-07T06:09:35.784Z,20.23
2023-04-07T06:12:05.119Z,18.97
2023-04-07T06:14:32.204Z,19.17
2023-04-07T06:16:59.565Z,18.27
2023-04-07T06:19:27.521Z,18.60
2023-04-07T06:21:54.846Z,19.30
2023-04-07T06:24:22.776Z,19.03
2023-04-07T06:26:49.923Z,19.83
2023-04-07T06:29:17.386Z,19.33
2023-04-07T06:31:44.550Z,22.80
2023-04-07T06:34:11.680Z,19.53
2023-04-07T06:36:38.814Z,19.07
2023-04-07T06:39:06.292Z,20.03
2023-04-07T06:41:33.386Z,20.53
2023-04-07T06:44:00.563Z,20.30
2023-04-07T06:46:27.799Z,20.10
2023-04-07T06:48:55.052Z,19.33
2023-04-07T06:51:22.175Z,19.87
2023-04-07T06:53:49.810Z,19.73
2023-04-07T06:56:17.115Z,19.63
2023-04-07T06:58:44.459Z,19.53
2023-04-07T07:01:11.718Z,19.60
2023-04-07T07:03:39.129Z,20.23
2023-04-07T07:06:06.568Z,18.67
2023-04-07T07:08:33.748Z,19.53
2023-04-07T07:11:01.052Z,16.53
2023-04-07T07:13:29.131Z,19.93
2023-04-07T07:15:56.399Z,18.50
2023-04-07T07:18:23.652Z,19.57
2023-04-07T07:20:51.140Z,19.27
2023-04-07T07:23:18.307Z,17.30
2023-04-07T07:25:45.951Z,19.67
2023-04-07T07:28:13.198Z,18.70
2023-04-07T07:30:41.517Z,20.50
2023-04-07T07:33:08.889Z,20.93
2023-04-07T07:35:37.946Z,19.20
2023-04-07T07:38:05.215Z,17.63
2023-04-07T07:40:32.427Z,19.73
2023-04-07T07:42:59.541Z,18.00
2023-04-07T07:45:26.653Z,19.90
2023-04-07T07:47:53.764Z,19.23
2023-04-07T07:50:20.874Z,19.23
2023-04-07T07:52:47.987Z,21.27
2023-04-07T07:55:15.429Z,21.20
2023-04-07T07:57:42.841Z,21.70
2023-04-07T08:00:10.469Z,22.10
2023-04-07T08:02:38.872Z,20.30
2023-04-07T08:05:06.924Z,21.50
2023-04-07T08:07:34.113Z,22.33
2023-04-07T08:10:01.216Z,19.73
2023-04-07T08:12:28.372Z,19.53
2023-04-07T08:14:55.716Z,19.97
2023-04-07T08:17:22.883Z,19.40
2023-04-07T08:19:50.044Z,20.07
2023-04-07T08:22:19.569Z,22.13
2023-04-07T08:24:47.446Z,21.13
2023-04-07T08:27:14.654Z,20.33
2023-04-07T08:29:41.824Z,19.93
2023-04-07T08:32:08.991Z,19.00
2023-04-07T08:34:36.110Z,19.83
2023-04-07T08:37:03.353Z,19.90
2023-04-07T08:39:30.421Z,20.10
2023-04-07T08:41:58.708Z,21.53
2023-04-07T08:44:27.272Z,20.00
2023-04-07T08:46:57.304Z,19.60
2023-04-07T08:49:25.241Z,19.13
2023-04-07T08:51:53.929Z,18.83
2023-04-07T08:54:22.610Z,18.67
2023-04-07T08:56:49.760Z,18.73
2023-04-07T08:59:25.283Z,20.03
2023-04-07T09:01:52.587Z,20.30
2023-04-07T09:04:20.001Z,20.83
2023-04-07T09:06:47.288Z,25.43
2023-04-07T09:09:15.519Z,22.73
2023-04-07T09:11:42.701Z,20.03
2023-04-07T09:14:09.965Z,21.63
2023-04-07T09:16:37.161Z,21.00
2023-04-07T09:19:04.309Z,22.40
2023-04-07T09:21:47.957Z,16.60
2023-04-07T09:24:25.846Z,15.07
2023-04-07T09:27:10.017Z,14.93
2023-04-07T09:29:37.735Z,15.07
2023-04-07T09:32:05.010Z,15.10
2023-04-07T09:34:32.157Z,15.20
2023-04-07T09:36:59.595Z,15.93
2023-04-07T09:39:26.950Z,14.77
2023-04-07T09:41:54.368Z,14.97
2023-04-07T09:44:22.095Z,14.37
2023-04-07T09:46:59.215Z,14.00
2023-04-07T09:49:27.334Z,13.77
2023-04-07T09:51:54.566Z,12.07
2023-04-07T09:54:34.822Z,12.97
2023-04-07T09:57:03.116Z,13.37
2023-04-07T09:59:31.649Z,12.70
2023-04-07T10:01:59.115Z,14.53
2023-04-07T10:04:29.164Z,13.70
2023-04-07T10:06:57.093Z,13.10
2023-04-07T10:09:25.362Z,13.13
2023-04-07T10:11:53.337Z,13.03
2023-04-07T10:14:21.569Z,12.97
2023-04-07T10:16:49.097Z,12.57
2023-04-07T10:19:16.698Z,12.77
2023-04-07T10:21:44.748Z,12.60
2023-04-07T10:24:22.509Z,12.83
2023-04-07T10:27:02.503Z,12.00
2023-04-07T10:32:58.958Z,11.37
2023-04-07T10:39:07.823Z,11.47
2023-04-07T10:41:42.239Z,11.07
2023-04-07T10:44:10.976Z,11.13
2023-04-07T10:46:48.371Z,11.37
2023-04-07T10:49:19.327Z,11.23
2023-04-07T10:52:06.425Z,10.57
2023-04-07T10:54:33.544Z,10.90
2023-04-07T10:57:03.564Z,11.30
2023-04-07T10:59:31.193Z,10.53
2023-04-07T11:02:13.848Z,11.00
2023-04-07T11:04:42.616Z,10.00
2023-04-07T11:07:10.288Z,9.97
2023-04-07T11:09:37.651Z,10.07
2023-04-07T11:12:04.980Z,10.13
2023-04-07T11:14:33.082Z,10.00
2023-04-07T11:17:03.590Z,10.13
2023-04-07T11:19:32.469Z,9.93
2023-04-07T11:22:28.682Z,9.80
2023-04-07T11:24:57.314Z,9.60
2023-04-07T11:27:24.675Z,9.53
2023-04-07T11:29:51.887Z,8.97
2023-04-07T11:32:25.908Z,8.07
2023-04-07T11:34:53.349Z,9.00
2023-04-07T11:37:21.584Z,8.90
2023-04-07T11:39:54.825Z,9.00
2023-04-07T11:42:34.792Z,9.27
2023-04-07T11:45:01.996Z,9.33
2023-04-07T11:47:39.065Z,8.77
2023-04-07T11:50:06.663Z,9.20
2023-04-07T11:52:43.343Z,9.60
2023-04-07T11:55:22.004Z,10.20
2023-04-07T11:57:51.328Z,9.97
2023-04-07T12:00:18.622Z,10.00
2023-04-07T12:02:46.459Z,9.10
2023-04-07T12:05:13.841Z,9.70
2023-04-07T12:07:42.059Z,10.07
2023-04-07T12:10:21.559Z,8.90
2023-04-07T12:12:49.836Z,9.27
2023-04-07T12:15:17.015Z,8.93
2023-04-07T12:17:48.078Z,8.60
2023-04-07T12:20:15.962Z,8.47
2023-04-07T12:22:43.178Z,8.20
2023-04-07T12:25:10.412Z,8.35
2023-04-07T12:27:43.217Z,8.25
2023-04-07T12:30:11.442Z,7.40
2023-04-07T12:32:38.705Z,8.05
2023-04-07T12:35:06.870Z,8.15
2023-04-07T12:37:34.076Z,7.45
2023-04-07T12:40:01.239Z,6.53
2023-04-07T12:42:28.334Z,6.50
2023-04-07T12:44:55.533Z,5.97
2023-04-07T12:47:22.721Z,6.57
2023-04-07T12:49:50.425Z,7.13
2023-04-07T12:52:17.755Z,6.35
2023-04-07T12:54:45.419Z,6.78
2023-04-07T12:57:12.694Z,6.38
2023-04-07T12:59:39.848Z,5.63
2023-04-07T13:02:07.061Z,6.00
2023-04-07T13:04:35.391Z,6.05
2023-04-07T13:07:03.271Z,5.68
2023-04-07T13:09:30.458Z,5.72
2023-04-07T13:11:57.967Z,5.55
2023-04-07T13:14:25.278Z,7.05
2023-04-07T13:16:52.590Z,6.32
2023-04-07T13:19:19.791Z,6.13
2023-04-07T13:21:48.120Z,5.95
2023-04-07T13:24:16.007Z,5.82
2023-04-07T13:26:43.168Z,5.53
2023-04-07T13:29:10.493Z,5.70
2023-04-07T13:31:37.618Z,5.53
2023-04-07T13:34:04.757Z,5.13
2023-04-07T13:36:31.910Z,5.55
2023-04-07T13:38:59.665Z,5.65
2023-04-07T13:41:26.786Z,6.35
2023-04-07T13:43:53.964Z,6.63
2023-04-07T13:46:28.532Z,5.80
2023-04-07T13:48:56.495Z,5.40
2023-04-07T13:51:23.720Z,5.78
2023-04-07T13:53:51.033Z,6.50
2023-04-07T13:56:18.375Z,5.53
2023-04-07T13:58:45.954Z,5.90
2023-04-07T14:01:13.202Z,6.07
2023-04-07T14:03:40.398Z,5.25
2023-04-07T14:06:07.571Z,5.32
2023-04-07T14:08:34.773Z,5.15
2023-04-07T14:11:01.889Z,5.68
2023-04-07T14:13:28.988Z,5.47
2023-04-07T14:15:56.162Z,5.03
2023-04-07T14:18:23.670Z,5.90
2023-04-07T14:20:50.922Z,5.78
2023-04-07T14:23:30.079Z,5.15
2023-04-07T14:26:03.772Z,5.43
2023-04-07T14:28:30.879Z,5.55
2023-04-07T14:30:58.068Z,5.80
2023-04-07T14:33:26.203Z,5.35
2023-04-07T14:35:53.393Z,5.38
2023-04-07T14:38:25.665Z,5.88
2023-04-07T14:40:53.044Z,5.68
2023-04-07T14:43:20.258Z,5.38
2023-04-07T14:45:47.443Z,5.33
2023-04-07T14:48:14.555Z,5.00
2023-04-07T14:50:41.747Z,4.90
2023-04-07T14:53:08.933Z,5.27
2023-04-07T14:55:36.423Z,4.43
2023-04-07T14:58:03.545Z,4.63
2023-04-07T15:00:30.743Z,5.00
2023-04-07T15:02:58.305Z,4.70
2023-04-07T15:05:27.934Z,5.03
2023-04-07T15:07:55.311Z,4.75
2023-04-07T15:10:22.470Z,5.13
2023-04-07T15:12:50.358Z,5.28
2023-04-07T15:15:17.754Z,5.40
2023-04-07T15:17:45.519Z,4.97
2023-04-07T15:20:13.571Z,5.20
2023-04-07T15:22:40.859Z,5.00
2023-04-07T15:25:08.587Z,5.07
2023-04-07T15:27:35.912Z,4.85
2023-04-07T15:30:03.196Z,5.50
2023-04-07T15:32:33.362Z,5.65
2023-04-07T15:35:00.834Z,7.00
2023-04-07T15:37:27.951Z,7.18
2023-04-07T15:39:55.078Z,7.15
2023-04-07T15:42:22.195Z,6.97
2023-04-07T15:44:49.323Z,6.40
2023-04-07T15:47:16.449Z,6.57
2023-04-07T15:49:43.553Z,6.22
2023-04-07T15:52:12.043Z,6.40
2023-04-07T15:54:39.229Z,6.60
2023-04-07T15:57:06.361Z,6.78
2023-04-07T15:59:36.008Z,6.95
2023-04-07T16:02:03.304Z,6.95
2023-04-07T16:04:30.527Z,6.80
2023-04-07T16:06:57.685Z,6.65
2023-04-07T16:09:24.827Z,7.60
2023-04-07T16:11:51.940Z,7.15
2023-04-07T16:14:19.090Z,7.40
2023-04-07T16:16:46.331Z,7.40
2023-04-07T16:19:14.648Z,7.63
2023-04-07T16:21:41.822Z,7.30
2023-04-07T16:24:08.945Z,6.93
2023-04-07T16:26:36.043Z,6.83
2023-04-07T16:29:03.265Z,6.93
2023-04-07T16:31:30.619Z,6.93
2023-04-07T16:33:58.057Z,6.90
2023-04-07T16:36:26.346Z,7.10
2023-04-07T16:38:53.904Z,7.20
2023-04-07T16:41:21.810Z,7.00
2023-04-07T16:43:49.093Z,7.50
2023-04-07T16:46:16.354Z,7.70
2023-04-07T16:48:43.471Z,7.73
2023-04-07T16:51:10.775Z,7.80
2023-04-07T16:53:37.923Z,7.60
2023-04-07T16:56:05.123Z,7.80
2023-04-07T16:58:32.244Z,8.30
2023-04-07T17:00:59.387Z,8.77
2023-04-07T17:03:26.697Z,9.37
2023-04-07T17:05:54.020Z,9.03
2023-04-07T17:08:21.313Z,8.83
2023-04-07T17:10:48.392Z,8.93
2023-04-07T17:13:15.621Z,9.17
2023-04-07T17:15:42.780Z,9.37
2023-04-07T17:18:09.942Z,9.73
2023-04-07T17:20:37.157Z,8.93
2023-04-07T17:23:04.300Z,8.90
2023-04-07T17:25:31.416Z,8.90
2023-04-07T17:27:58.549Z,8.30
2023-04-07T17:30:25.641Z,10.70
2023-04-07T17:32:53.590Z,9.13
2023-04-07T17:35:21.389Z,9.70
2023-04-07T17:37:48.623Z,10.83
2023-04-07T17:40:15.818Z,10.17
2023-04-07T17:42:43.043Z,9.03
2023-04-07T17:45:10.911Z,10.33
2023-04-07T17:47:38.618Z,10.23
2023-04-07T17:50:06.035Z,9.23
2023-04-07T17:52:33.259Z,9.23
2023-04-07T17:55:00.647Z,9.70
2023-04-07T17:57:27.768Z,10.50
2023-04-07T17:59:54.881Z,9.00
2023-04-07T18:02:22.422Z,9.37
2023-04-07T18:04:50.461Z,9.13
2023-04-07T18:07:17.850Z,9.03
2023-04-07T18:09:45.123Z,9.00
2023-04-07T18:12:12.359Z,8.70
2023-04-07T18:14:39.481Z,9.10
2023-04-07T18:17:06.615Z,9.00
2023-04-07T18:19:33.996Z,8.60
2023-04-07T18:22:01.897Z,8.87
2023-04-07T18:24:29.005Z,9.13
2023-04-07T18:26:56.950Z,9.50
2023-04-07T18:29:24.076Z,9.80
2023-04-07T18:31:51.381Z,10.23
2023-04-07T18:34:18.569Z,10.00
2023-04-07T18:36:47.627Z,9.63
2023-04-07T18:39:14.876Z,9.97
2023-04-07T18:41:44.726Z,10.33
2023-04-07T18:44:12.163Z,9.20
2023-04-07T18:46:39.369Z,10.00
2023-04-07T18:49:06.563Z,9.13
2023-04-07T18:51:33.696Z,9.67
2023-04-07T18:54:00.797Z,10.30
2023-04-07T18:56:28.382Z,9.73
2023-04-07T18:58:55.691Z,11.83
2023-04-07T19:01:22.899Z,10.60
2023-04-07T19:03:50.209Z,10.77
2023-04-07T19:06:17.785Z,10.83
2023-04-07T19:08:45.045Z,11.80
2023-04-07T19:11:12.162Z,12.10
2023-04-07T19:13:39.289Z,11.83
2023-04-07T19:16:07.673Z,12.80
2023-04-07T19:18:34.890Z,12.33
2023-04-07T19:21:02.200Z,11.67
2023-04-07T19:23:30.583Z,12.63
2023-04-07T19:25:57.718Z,12.33
2023-04-07T19:28:24.933Z,12.37
2023-04-07T19:30:52.095Z,13.83
2023-04-07T19:33:19.272Z,12.80
2023-04-07T19:35:46.465Z,13.07
2023-04-07T19:38:13.601Z,12.67
2023-04-07T19:40:40.854Z,12.77
2023-04-07T19:43:08.299Z,12.47
2023-04-07T19:45:35.619Z,11.60
2023-04-07T19:48:03.173Z,11.93
2023-04-07T19:50:30.526Z,11.63
2023-04-07T19:52:57.640Z,12.57
2023-04-07T19:55:24.814Z,11.43
2023-04-07T19:57:51.956Z,12.43
2023-04-07T20:00:19.142Z,11.40
2023-04-07T20:02:46.406Z,10.47
2023-04-07T20:05:13.617Z,10.80
2023-04-07T20:07:40.801Z,11.47
2023-04-07T20:10:08.187Z,10.43
2023-04-07T20:12:35.323Z,10.90
2023-04-07T20:15:04.777Z,10.97
2023-04-07T20:17:32.587Z,11.43
2023-04-07T20:20:00.450Z,12.03
2023-04-07T20:22:42.618Z,12.00
2023-04-07T20:25:09.793Z,12.17
2023-04-07T20:27:37.415Z,11.73
2023-04-07T20:30:04.833Z,11.90
2023-04-07T20:32:32.030Z,11.70
2023-04-07T20:34:59.198Z,11.60
2023-04-07T20:37:26.575Z,12.73
2023-04-07T20:39:55.537Z,12.97
2023-04-07T20:42:22.791Z,13.50
2023-04-07T20:44:49.897Z,15.53
2023-04-07T20:47:17.735Z,15.07
2023-04-07T20:49:44.994Z,13.83
2023-04-07T20:52:12.473Z,13.50
2023-04-07T20:54:41.580Z,12.47
2023-04-07T20:57:08.819Z,13.23
2023-04-07T20:59:36.062Z,12.93
2023-04-07T21:02:03.653Z,13.63
2023-04-07T21:04:31.162Z,13.40
2023-04-07T21:06:58.402Z,14.40
2023-04-07T21:09:25.864Z,15.43
2023-04-07T21:11:53.282Z,15.77
2023-04-07T21:14:20.366Z,16.00
2023-04-07T21:16:47.498Z,15.93
2023-04-07T21:19:14.604Z,14.73
2023-04-07T21:21:41.716Z,15.97
2023-04-07T21:24:08.823Z,16.43
2023-04-07T21:26:36.109Z,15.50
2023-04-07T21:29:03.316Z,16.03
2023-04-07T21:31:30.721Z,16.90
2023-04-07T21:33:57.914Z,16.03
2023-04-07T21:36:25.803Z,15.07
2023-04-07T21:38:52.943Z,15.47
2023-04-07T21:41:20.025Z,15.30
2023-04-07T21:43:47.183Z,15.73
2023-04-07T21:46:14.353Z,14.90
2023-04-07T21:48:42.166Z,15.80
2023-04-07T21:51:09.443Z,15.83
2023-04-07T21:53:36.736Z,15.13
2023-04-07T21:56:04.011Z,15.03
2023-04-07T21:58:31.129Z,14.50
2023-04-07T22:00:58.237Z,14.23
2023-04-07T22:03:25.542Z,15.23
2023-04-07T22:05:52.845Z,14.47
2023-04-07T22:08:20.007Z,14.73
2023-04-07T22:10:47.094Z,14.13
2023-04-07T22:13:14.260Z,14.30
2023-04-07T22:15:41.399Z,14.90
2023-04-07T22:18:08.679Z,15.60
2023-04-07T22:20:35.997Z,14.60
2023-04-07T22:23:03.113Z,14.40
2023-04-07T22:25:30.327Z,15.43
2023-04-07T22:27:57.610Z,16.87
2023-04-07T22:30:25.526Z,15.70
2023-04-07T22:32:52.975Z,15.53
2023-04-07T22:35:20.326Z,15.63
2023-04-07T22:37:47.456Z,15.87
2023-04-07T22:40:14.616Z,16.83
2023-04-07T22:42:41.750Z,15.60
2023-04-07T22:45:09.292Z,15.13
2023-04-07T22:47:36.645Z,16.73
2023-04-07T22:50:03.861Z,16.10
2023-04-07T22:52:31.142Z,16.00
2023-04-07T22:54:58.384Z,16.30
2023-04-07T22:57:26.346Z,16.20
2023-04-07T22:59:53.794Z,16.77
2023-04-07T23:02:21.320Z,17.63
2023-04-07T23:04:49.599Z,16.97
2023-04-07T23:07:17.086Z,17.70
2023-04-07T23:09:44.244Z,19.37
2023-04-07T23:12:11.681Z,19.17
2023-04-07T23:14:38.756Z,17.43
2023-04-07T23:17:05.820Z,17.37
2023-04-07T23:19:32.911Z,18.50
2023-04-07T23:22:00.098Z,19.03
2023-04-07T23:24:27.230Z,19.47
2023-04-07T23:26:54.462Z,19.27
2023-04-07T23:29:21.578Z,19.97
2023-04-07T23:31:48.751Z,20.73
2023-04-07T23:34:16.014Z,21.43
2023-04-07T23:36:43.836Z,18.60
2023-04-07T23:39:11.291Z,17.47
2023-04-07T23:41:39.668Z,17.80
2023-04-07T23:44:07.231Z,17.63
2023-04-07T23:46:34.407Z,17.23
2023-04-07T23:49:01.650Z,18.30
2023-04-07T23:51:28.767Z,18.73
2023-04-07T23:53:55.873Z,19.13
2023-04-07T23:56:23.235Z,18.93
2023-04-07T23:58:50.615Z,18.47
